Time;durP1;ratioP1;P1;durP2;ratioP2;P2;SDS_P1;SDS_P2;PMS_P1;PMS_P2;Temp;Humidity;BMP_temperature;BMP_pressure;BME280_temperature;BME280_humidity;BME280_pressure;Samples;Min_cycle;Max_cycle;Signal;HPM_P1;HPM_P2
2022/03/23 00:01:06;;;;;;;;;;;5.90;94.20;;;5.38;71.59;98412.41;5026961;28;19925;-37
2022/03/23 00:03:34;;;;;;;;;;;5.90;94.50;;;5.31;72.20;98411.50;5023462;28;20016;-39
2022/03/23 00:06:00;;;;;;;;;;;5.80;94.80;;;5.24;72.94;98409.75;5022500;28;20014;-41
2022/03/23 00:08:26;;;;;;;;;;;5.80;95.00;;;5.19;72.40;98414.13;5023101;28;19921;-39
2022/03/23 00:10:51;;;;;;;;;;;5.70;94.90;;;5.15;71.32;98411.53;5022732;28;19970;-42
2022/03/23 00:13:17;;;;;;;;;;;5.70;94.60;;;5.11;69.06;98414.97;5020912;28;19925;-36
2022/03/23 00:15:43;;;;;;;;;;;5.70;93.90;;;5.09;67.28;98408.88;5024027;28;20337;-41
2022/03/23 00:18:09;;;;;;;;;;;5.60;93.30;;;5.07;66.24;98408.00;5026359;28;19920;-40
2022/03/23 00:20:34;;;;;;;;;;;5.60;93.00;;;5.10;65.61;98417.63;5023663;28;19929;-40
2022/03/23 00:23:00;;;;;;;;;;;5.60;93.00;;;5.06;65.52;98410.63;5023051;28;20011;-37
2022/03/23 00:25:26;;;;;;;;;;;5.60;92.70;;;5.06;65.55;98416.75;5021413;28;19924;-40
2022/03/23 00:27:51;;;;;;;;;;;5.60;92.80;;;5.01;66.55;98410.63;5023421;28;20020;-40
2022/03/23 00:30:17;;;;;;;;;;;5.60;93.10;;;4.92;66.93;98408.00;5023006;28;20391;-41
2022/03/23 00:32:43;;;;;;;;;;;5.50;93.20;;;4.80;65.81;98394.91;5025953;28;20035;-41
2022/03/23 00:35:09;;;;;;;;;;;5.50;92.90;;;4.92;62.93;98413.25;5023157;28;19921;-39
2022/03/23 00:37:35;;;;;;;;;;;5.50;92.00;;;4.93;63.31;98417.59;5025102;28;19925;-38
2022/03/23 00:40:01;;;;;;;;;;;5.50;92.00;;;4.92;62.32;98413.25;5029209;28;19916;-37
2022/03/23 00:42:26;;;;;;;;;;;5.50;91.80;;;4.91;61.35;98412.34;5025856;28;19925;-41
2022/03/23 00:44:52;;;;;;;;;;;5.50;91.30;;;4.87;61.25;98409.75;5021934;28;20003;-40
2022/03/23 00:47:18;;;;;;;;;;;5.40;91.30;;;4.81;60.41;98435.84;5028106;28;20768;-38
2022/03/23 00:49:44;;;;;;;;;;;5.40;90.90;;;4.79;61.24;98433.22;5028795;28;20371;-43
2022/03/23 00:52:11;;;;;;;;;;;5.40;91.10;;;4.74;60.40;98420.16;5028216;28;20359;-39
2022/03/23 00:54:37;;;;;;;;;;;5.30;90.90;;;4.67;60.25;98420.16;5034282;28;20295;-38
2022/03/23 00:57:04;;;;;;;;;;;5.30;90.90;;;4.66;60.16;98421.88;5025358;28;20417;-38
2022/03/23 00:59:30;;;;;;;;;;;5.20;90.80;;;4.61;60.96;98409.66;5022261;28;19936;-41
2022/03/23 01:01:56;;;;;;;;;;;5.20;91.10;;;4.57;61.02;98422.69;5027441;28;19925;-37
2022/03/23 01:04:23;;;;;;;;;;;5.20;91.20;;;4.58;62.69;98418.38;5027965;28;20474;-37
2022/03/23 01:06:49;;;;;;;;;;;5.10;91.80;;;4.52;64.14;98410.50;5030009;28;20063;-40
2022/03/23 01:09:14;;;;;;;;;;;5.10;92.30;;;4.47;64.78;98409.59;5028890;28;19929;-37
2022/03/23 01:11:40;;;;;;;;;;;5.00;92.50;;;4.38;65.31;98411.34;5020998;28;20192;-40
2022/03/23 01:14:07;;;;;;;;;;;5.00;92.70;;;4.34;64.90;98409.59;5021885;28;20414;-38
2022/03/23 01:16:33;;;;;;;;;;;4.90;92.60;;;4.24;64.09;98393.88;5021454;28;19921;-43
2022/03/23 01:18:59;;;;;;;;;;;4.90;92.40;;;4.33;62.39;98407.81;5024428;28;19939;-39
2022/03/23 01:21:25;;;;;;;;;;;4.90;91.80;;;4.37;61.62;98399.13;5021776;28;19925;-39
2022/03/23 01:23:50;;;;;;;;;;;4.90;91.50;;;4.38;60.97;98390.44;5021906;28;19924;-38
2022/03/23 01:26:16;;;;;;;;;;;5.00;91.30;;;4.54;58.89;98403.53;5020277;28;19932;-38
2022/03/23 01:28:42;;;;;;;;;;;5.00;90.70;;;4.52;58.02;98403.56;5020267;28;19925;-40
2022/03/23 01:31:08;;;;;;;;;;;5.10;90.20;;;4.56;58.95;98407.06;5017575;28;19932;-37
2022/03/23 01:33:34;;;;;;;;;;;5.10;90.40;;;4.58;56.54;98397.47;5020708;28;20390;-39
2022/03/23 01:36:00;;;;;;;;;;;5.20;89.20;;;4.61;56.60;98402.69;5021871;28;20173;-40
2022/03/23 01:38:25;;;;;;;;;;;5.20;89.20;;;4.62;55.33;98409.66;5019905;28;19925;-41
2022/03/23 01:40:51;;;;;;;;;;;5.10;87.90;;;4.57;55.14;98398.31;5022186;28;20435;-38
2022/03/23 01:43:17;;;;;;;;;;;5.10;87.70;;;4.36;57.59;98371.28;5029219;28;20480;-40
2022/03/23 01:45:42;;;;;;;;;;;5.10;90.00;;;4.45;57.46;98395.66;5021771;28;20016;-40
2022/03/23 01:48:08;;;;;;;;;;;5.00;89.70;;;4.48;56.87;98398.31;5019486;28;19929;-39
2022/03/23 01:50:34;;;;;;;;;;;5.00;89.00;;;4.44;58.61;98399.16;5028593;28;20398;-39
2022/03/23 01:52:59;;;;;;;;;;;5.00;90.30;;;4.40;58.60;98396.53;5029575;28;21789;-38
2022/03/23 01:55:25;;;;;;;;;;;5.00;90.20;;;4.36;58.35;98386.06;5034656;28;19917;-39
2022/03/23 01:57:52;;;;;;;;;;;5.00;90.20;;;4.37;57.93;98393.91;5022307;28;19925;-37
2022/03/23 02:00:19;;;;;;;;;;;5.10;89.90;;;4.37;57.85;98399.13;5022134;28;19924;-39
2022/03/23 02:02:45;;;;;;;;;;;5.10;89.80;;;4.35;57.89;98402.63;5019974;28;19921;-42
2022/03/23 02:05:11;;;;;;;;;;;5.00;89.70;;;4.32;58.76;98394.75;5022319;28;19924;-39
2022/03/23 02:07:37;;;;;;;;;;;4.90;90.30;;;4.27;60.37;98393.88;5019523;28;20047;-36
2022/03/23 02:10:04;;;;;;;;;;;4.90;90.90;;;4.19;62.04;98383.41;5018618;28;19925;-36
2022/03/23 02:12:30;;;;;;;;;;;4.80;91.60;;;4.20;63.89;98398.22;5023942;28;19931;-41
2022/03/23 02:15:00;;;;;;;;;;;4.70;92.30;;;4.13;64.31;98386.84;5021181;28;19974;-43
2022/03/23 02:17:26;;;;;;;;;;;4.70;92.50;;;4.08;65.45;98390.31;5023117;28;19924;-40
2022/03/23 02:19:52;;;;;;;;;;;4.60;92.80;;;4.03;64.52;98386.81;5020958;28;20317;-39
2022/03/23 02:22:18;;;;;;;;;;;4.60;92.60;;;4.01;64.55;98389.41;5024177;28;20365;-43
2022/03/23 02:24:46;;;;;;;;;;;4.60;92.60;;;3.94;65.72;98387.63;5023780;28;19924;-40
2022/03/23 02:27:12;;;;;;;;;;;4.50;93.40;;;3.93;66.63;98391.97;5020852;28;20385;-40
2022/03/23 02:29:38;;;;;;;;;;;4.50;93.30;;;3.89;68.21;98392.81;5018991;28;20028;-38
2022/03/23 02:32:05;;;;;;;;;;;4.50;93.80;;;3.85;70.65;98398.03;5018721;28;19947;-40
2022/03/23 02:34:31;;;;;;;;;;;4.40;94.60;;;3.77;71.60;98383.19;5020055;28;19970;-38
2022/03/23 02:37:00;;;;;;;;;;;4.40;95.00;;;3.59;72.82;98377.88;5025739;28;19916;-39
2022/03/23 02:39:28;;;;;;;;;;;4.30;95.20;;;3.65;73.75;98388.31;5019978;28;20573;-39
2022/03/23 02:41:56;;;;;;;;;;;4.30;95.70;;;3.60;75.00;98387.41;5023048;28;19979;-38
2022/03/23 02:44:21;;;;;;;;;;;4.20;96.10;;;3.57;76.10;98387.38;5021694;28;20401;-39
2022/03/23 02:46:47;;;;;;;;;;;4.20;96.60;;;3.50;76.71;98390.81;5025056;28;21891;-38
2022/03/23 02:49:18;;;;;;;;;;;4.20;96.70;;;3.44;76.97;98399.47;5021321;28;19931;-37
2022/03/23 02:51:44;;;;;;;;;;;4.10;96.90;;;3.32;77.10;98386.34;5022335;28;21049;-39
2022/03/23 03:02:38;;;;;;;;;;;3.80;96.70;;;3.19;75.69;98401.88;5020263;28;20419;-40
2022/03/23 03:05:05;;;;;;;;;;;3.80;96.80;;;3.13;75.40;98400.97;5019641;28;20094;-39
2022/03/23 03:10:24;;;;;;;;;;;3.70;96.70;;;3.04;74.73;98412.19;5000887;28;19967;-36
2022/03/23 03:12:51;;;;;;;;;;;3.70;96.60;;;3.08;74.62;98407.88;5027983;28;20412;-39
2022/03/23 03:15:18;;;;;;;;;;;3.70;96.60;;;3.03;76.28;98423.47;5028549;28;19975;-39
2022/03/23 03:17:44;;;;;;;;;;;3.60;97.20;;;2.94;77.27;98407.75;5032190;28;19963;-44
2022/03/23 03:20:10;;;;;;;;;;;3.60;97.60;;;2.89;76.74;98410.31;5026273;28;20004;-38
2022/03/23 03:22:40;;;;;;;;;;;3.50;97.40;;;2.85;76.32;98414.63;5027935;28;19924;-36
2022/03/23 03:25:07;;;;;;;;;;;3.50;97.40;;;2.79;76.25;98413.69;5027324;28;19952;-39
2022/03/23 03:27:35;;;;;;;;;;;3.40;97.40;;;2.72;76.94;98412.72;5029812;28;19966;-39
2022/03/23 03:30:05;;;;;;;;;;;3.40;97.70;;;2.72;77.39;98417.94;5029533;28;19983;-40
2022/03/23 03:32:30;;;;;;;;;;;3.40;97.90;;;2.68;77.50;98418.78;5031700;28;19921;-39
2022/03/23 03:34:56;;;;;;;;;;;3.30;97.90;;;2.63;77.89;98415.25;5028793;28;19950;-35
2022/03/23 03:37:22;;;;;;;;;;;3.30;98.20;;;2.62;78.87;98417.00;5030050;28;19921;-40
2022/03/23 03:39:48;;;;;;;;;;;3.30;98.50;;;2.56;79.37;98403.00;5028509;28;20027;-40
2022/03/23 03:42:14;;;;;;;;;;;3.30;98.80;;;2.56;79.91;98426.44;5025657;28;19921;-38
2022/03/23 03:44:39;;;;;;;;;;;3.20;99.00;;;2.51;79.82;98415.97;5029495;28;19970;-38
2022/03/23 03:47:05;;;;;;;;;;;3.10;99.10;;;2.46;80.40;98415.94;5028997;28;20323;-37
2022/03/23 03:49:31;;;;;;;;;;;3.10;99.40;;;2.46;80.91;98421.16;5022872;28;19921;-38
2022/03/23 03:51:57;;;;;;;;;;;3.10;99.60;;;2.43;80.64;98425.44;5026767;28;19921;-38
2022/03/23 03:54:23;;;;;;;;;;;3.10;99.70;;;2.32;81.02;98404.47;5029651;28;20316;-42
2022/03/23 03:56:48;;;;;;;;;;;3.10;99.80;;;2.39;80.72;98418.47;5033804;28;19970;-38
2022/03/23 03:59:14;;;;;;;;;;;3.00;99.90;;;2.40;81.11;98422.78;5021311;28;19925;-36
2022/03/23 04:01:40;;;;;;;;;;;3.00;99.90;;;2.36;81.43;98421.88;5010661;28;20016;-39
2022/03/23 04:04:05;;;;;;;;;;;3.00;99.90;;;2.37;81.74;98423.66;5010073;28;19931;-38
2022/03/23 04:06:31;;;;;;;;;;;3.00;99.90;;;2.37;81.22;98423.66;5010303;28;19928;-39
2022/03/23 04:08:56;;;;;;;;;;;3.00;99.90;;;2.36;80.96;98424.50;5009487;28;20433;-37
2022/03/23 04:11:22;;;;;;;;;;;3.00;99.90;;;2.33;81.37;98419.22;5012237;28;19928;-40
2022/03/23 04:13:48;;;;;;;;;;;3.00;99.90;;;2.23;81.19;98409.59;5009822;28;19932;-37
2022/03/23 04:16:13;;;;;;;;;;;2.90;99.90;;;2.26;81.92;98420.91;5005050;28;20398;-40
2022/03/23 04:18:39;;;;;;;;;;;2.90;99.90;;;2.23;82.57;98427.81;5011035;28;20051;-41
2022/03/23 04:21:05;;;;;;;;;;;2.90;99.90;;;2.22;83.65;98426.91;5005024;28;19924;-37
2022/03/23 04:23:32;;;;;;;;;;;2.90;99.90;;;2.17;83.93;98422.50;5005811;28;19934;-38
2022/03/23 04:25:58;;;;;;;;;;;2.80;99.90;;;2.15;84.00;98421.63;5005012;28;19925;-37
2022/03/23 04:28:23;;;;;;;;;;;2.80;99.90;;;2.10;84.39;98419.84;5004981;28;20298;-42
2022/03/23 04:30:49;;;;;;;;;;;2.80;99.90;;;2.00;84.30;98411.88;5000765;28;20027;-39
2022/03/23 04:33:15;;;;;;;;;;;2.70;99.90;;;2.03;84.15;98428.41;4986237;28;20020;-38
2022/03/23 04:35:40;;;;;;;;;;;2.70;99.90;;;2.02;84.52;98429.25;5005273;28;19947;-39
2022/03/23 04:38:06;;;;;;;;;;;2.70;99.90;;;2.00;84.97;98430.97;5006451;28;20923;-38
2022/03/23 04:40:32;;;;;;;;;;;2.70;99.90;;;1.97;84.70;98433.50;4992508;28;20063;-40
2022/03/23 04:42:58;;;;;;;;;;;2.60;99.90;;;1.92;85.22;98435.22;5009311;28;19971;-37
2022/03/23 04:45:24;;;;;;;;;;;2.60;99.90;;;1.91;85.17;98438.66;5006825;28;20389;-39
2022/03/23 04:47:50;;;;;;;;;;;2.60;99.90;;;1.91;85.26;98438.66;5006393;28;19925;-40
2022/03/23 04:50:16;;;;;;;;;;;2.60;99.90;;;1.88;85.70;98436.00;5011322;28;19929;-41
2022/03/23 04:52:43;;;;;;;;;;;2.50;99.90;;;1.85;85.78;98439.44;5012870;28;20397;-38
2022/03/23 04:55:09;;;;;;;;;;;2.50;99.90;;;1.83;86.45;98445.44;5011359;28;19936;-38
2022/03/23 04:57:35;;;;;;;;;;;2.50;99.90;;;1.75;86.73;98423.69;5013360;28;19952;-41
2022/03/23 05:00:02;;;;;;;;;;;2.50;99.90;;;1.75;87.15;98436.69;5092928;22;20066;-41
2022/03/23 05:02:27;;;;;;;;;;;2.50;99.90;;;1.82;87.26;98446.31;5085529;27;19920;-42
2022/03/23 05:04:53;;;;;;;;;;;2.50;99.90;;;1.82;87.72;98436.78;5089899;28;19935;-43
2022/03/23 05:07:18;;;;;;;;;;;2.50;99.90;;;1.86;87.88;98454.19;5087276;28;19916;-42
2022/03/23 05:09:44;;;;;;;;;;;2.50;99.90;;;1.85;87.46;98449.84;5078688;28;20170;-43
2022/03/23 05:12:10;;;;;;;;;;;2.50;99.90;;;1.86;87.21;98443.78;5049909;28;20010;-42
2022/03/23 05:14:36;;;;;;;;;;;2.50;99.90;;;1.87;87.15;98452.47;5065348;28;20297;-42
2022/03/23 05:17:02;;;;;;;;;;;2.50;99.90;;;1.88;86.56;98441.19;5068543;28;20166;-42
2022/03/23 05:19:28;;;;;;;;;;;2.50;99.90;;;1.90;85.67;98448.19;5054299;28;19924;-42
2022/03/23 05:21:54;;;;;;;;;;;2.60;99.90;;;1.92;85.41;98450.81;5073967;28;19932;-44
2022/03/23 05:24:20;;;;;;;;;;;2.50;99.90;;;1.90;85.58;98450.78;5074056;28;19924;-36
2022/03/23 05:26:45;;;;;;;;;;;2.60;99.90;;;1.83;85.35;98437.66;5068001;28;19956;-43
2022/03/23 05:29:11;;;;;;;;;;;2.50;99.90;;;1.84;85.33;98437.69;5077974;28;19916;-41
2022/03/23 05:31:37;;;;;;;;;;;2.50;99.90;;;1.90;84.95;98457.69;5075566;28;19924;-42
2022/03/23 05:34:04;;;;;;;;;;;2.60;99.90;;;1.92;85.17;98456.03;5076032;28;19955;-37
2022/03/23 05:36:30;;;;;;;;;;;2.60;99.90;;;1.94;85.09;98450.81;5082893;28;20202;-42
2022/03/23 05:38:57;;;;;;;;;;;2.60;99.90;;;1.96;84.52;98457.81;5075656;28;19916;-42
2022/03/23 05:41:24;;;;;;;;;;;2.60;99.90;;;2.03;84.97;98458.78;5084700;28;19925;-42
2022/03/23 05:43:49;;;;;;;;;;;2.70;99.90;;;2.05;84.63;98460.53;5075463;28;20007;-36
2022/03/23 05:46:15;;;;;;;;;;;2.70;99.90;;;2.08;84.80;98455.38;5074981;28;19931;-42
2022/03/23 05:48:41;;;;;;;;;;;2.80;99.90;;;2.14;84.46;98461.53;5078847;28;20527;-40
2022/03/23 05:51:07;;;;;;;;;;;2.80;99.90;;;2.20;84.42;98461.59;5070768;28;19925;-38
2022/03/23 05:53:33;;;;;;;;;;;2.90;99.90;;;2.13;83.83;98438.94;5082059;28;19916;-42
2022/03/23 05:55:58;;;;;;;;;;;2.90;99.90;;;2.34;83.99;98460.03;5068989;28;19923;-45
2022/03/23 05:58:24;;;;;;;;;;;3.00;99.90;;;2.38;84.12;98463.56;5070396;28;20328;-41
2022/03/23 06:00:50;;;;;;;;;;;3.00;99.90;;;2.43;84.22;98472.31;5064985;28;19951;-45
2022/03/23 06:03:15;;;;;;;;;;;3.10;99.90;;;2.49;83.94;98474.97;5070855;28;19924;-41
2022/03/23 06:05:41;;;;;;;;;;;3.20;99.90;;;2.54;83.52;98472.44;5066132;28;19978;-44
2022/03/23 06:08:07;;;;;;;;;;;3.20;99.90;;;2.58;83.67;98474.22;5066595;28;19971;-42
2022/03/23 06:10:33;;;;;;;;;;;3.30;99.90;;;2.59;83.28;98465.56;5063770;28;19924;-43
2022/03/23 06:12:59;;;;;;;;;;;3.30;99.90;;;2.67;82.98;98466.50;5064405;28;19935;-44
2022/03/23 06:15:24;;;;;;;;;;;3.40;99.90;;;2.75;82.52;98475.31;5041611;28;20308;-45
2022/03/23 06:17:50;;;;;;;;;;;3.50;99.90;;;2.82;82.47;98476.25;5054688;28;20348;-43
2022/03/23 06:20:16;;;;;;;;;;;3.50;99.90;;;2.90;82.85;98478.94;5076329;28;20376;-43
2022/03/23 06:22:41;;;;;;;;;;;3.60;99.90;;;2.96;82.77;98478.97;5077621;28;19925;-42
2022/03/23 06:25:08;;;;;;;;;;;3.60;99.90;;;3.05;82.75;98485.19;5061587;28;20165;-45
2022/03/23 06:27:34;;;;;;;;;;;3.70;99.90;;;3.11;82.52;98486.13;5078204;28;20025;-40
2022/03/23 06:30:01;;;;;;;;;;;3.80;99.90;;;3.14;81.96;98479.19;5075030;28;19943;-41
2022/03/23 06:32:27;;;;;;;;;;;3.90;99.90;;;3.23;81.89;98487.09;5076902;28;20003;-47
2022/03/23 06:34:52;;;;;;;;;;;3.90;99.90;;;3.33;81.33;98481.97;5079170;28;20383;-43
2022/03/23 06:37:18;;;;;;;;;;;4.00;99.90;;;3.37;80.83;98488.94;5081015;28;19934;-46
2022/03/23 06:39:44;;;;;;;;;;;4.00;99.90;;;3.43;80.56;98491.63;5076322;28;19942;-42
2022/03/23 06:42:09;;;;;;;;;;;4.10;99.90;;;3.49;80.33;98498.63;5073979;28;20038;-43
2022/03/23 06:44:38;;;;;;;;;;;4.20;99.90;;;3.56;80.44;98505.66;5069951;28;19920;-43
2022/03/23 06:47:04;;;;;;;;;;;4.30;99.90;;;3.63;80.36;98503.09;5077672;28;19986;-46
2022/03/23 06:49:29;;;;;;;;;;;4.30;99.90;;;3.70;79.83;98506.66;5074844;28;19926;-45
2022/03/23 06:51:55;;;;;;;;;;;4.40;99.90;;;3.75;79.69;98510.16;5072827;28;20329;-44
2022/03/23 06:54:21;;;;;;;;;;;4.40;99.90;;;3.80;79.08;98504.97;5070465;28;20392;-45
2022/03/23 06:56:50;;;;;;;;;;;4.50;99.90;;;3.88;78.27;98511.13;5074178;28;20090;-42
2022/03/23 06:59:16;;;;;;;;;;;4.60;99.90;;;3.91;75.94;98513.78;5074226;28;20414;-37
2022/03/23 07:01:41;;;;;;;;;;;4.70;99.90;;;4.00;74.65;98520.78;5063221;28;19924;-39
2022/03/23 07:04:07;;;;;;;;;;;4.70;99.90;;;4.10;74.92;98527.81;5074552;28;20451;-45
2022/03/23 07:06:32;;;;;;;;;;;4.80;99.90;;;4.20;74.34;98523.53;5076916;28;19935;-44
2022/03/23 07:11:42;;;;;;;;;;;4.90;99.90;;;4.32;74.73;98538.41;5069402;28;20660;-43
2022/03/23 07:14:08;;;;;;;;;;;5.00;99.90;;;4.44;74.82;98533.25;5061692;28;20275;-45
2022/03/23 07:16:33;;;;;;;;;;;5.10;99.90;;;4.51;75.59;98528.94;5070185;28;19924;-46
2022/03/23 07:18:59;;;;;;;;;;;5.20;99.90;;;4.58;74.79;98533.34;5069764;28;19975;-44
2022/03/23 07:21:24;;;;;;;;;;;5.20;99.90;;;4.68;73.74;98532.50;5079998;28;20292;-44
2022/03/23 07:23:50;;;;;;;;;;;5.30;99.90;;;4.76;73.52;98538.66;5070624;28;20010;-47
2022/03/23 07:26:16;;;;;;;;;;;5.40;99.90;;;4.86;73.02;98543.91;5064589;28;20204;-46
2022/03/23 07:28:42;;;;;;;;;;;5.50;99.90;;;4.89;72.36;98528.25;5069983;28;19962;-45
2022/03/23 07:31:08;;;;;;;;;;;5.60;99.90;;;5.07;71.16;98543.97;5067555;28;19934;-47
2022/03/23 07:33:34;;;;;;;;;;;5.70;99.90;;;5.17;71.05;98542.28;5074712;28;19919;-46
2022/03/23 07:36:01;;;;;;;;;;;5.80;99.90;;;5.23;71.10;98549.28;5078431;28;19969;-47
2022/03/23 07:38:26;;;;;;;;;;;5.90;99.90;;;5.29;71.06;98550.19;5080445;28;19919;-45
2022/03/23 07:40:52;;;;;;;;;;;5.90;99.90;;;5.37;71.08;98549.31;5067937;28;19948;-43
2022/03/23 07:43:17;;;;;;;;;;;6.00;99.90;;;5.46;70.81;98549.34;5065977;28;19935;-46
2022/03/23 07:45:43;;;;;;;;;;;6.10;99.90;;;5.54;70.00;98545.88;5078462;28;20444;-45
2022/03/23 07:48:09;;;;;;;;;;;6.20;99.70;;;5.64;69.00;98546.75;5080015;28;19920;-46
2022/03/23 07:50:34;;;;;;;;;;;6.30;99.40;;;5.78;68.35;98552.00;5078750;28;20018;-44
2022/03/23 07:53:02;;;;;;;;;;;6.40;99.00;;;5.89;67.94;98554.63;5082031;28;19981;-46
2022/03/23 07:55:28;;;;;;;;;;;6.50;98.90;;;6.00;67.85;98549.41;5082312;28;19956;-45
2022/03/23 07:57:54;;;;;;;;;;;6.60;98.80;;;6.11;67.50;98547.66;5071369;28;20373;-38
2022/03/23 08:00:21;;;;;;;;;;;6.70;98.80;;;6.21;67.57;98552.03;5072881;28;20293;-40
2022/03/23 08:02:46;;;;;;;;;;;6.80;98.70;;;6.34;66.45;98554.63;5069256;28;19992;-46
2022/03/23 08:05:12;;;;;;;;;;;6.90;98.40;;;6.43;66.16;98554.59;5072107;28;19924;-41
2022/03/23 08:07:38;;;;;;;;;;;7.10;98.20;;;6.54;65.29;98555.44;5078392;28;19920;-43
2022/03/23 08:10:04;;;;;;;;;;;7.20;97.90;;;6.66;65.07;98560.66;5071659;28;19963;-44
2022/03/23 08:12:29;;;;;;;;;;;7.30;97.70;;;6.78;63.98;98562.34;5077725;28;19928;-43
2022/03/23 08:14:55;;;;;;;;;;;7.40;97.50;;;6.91;63.56;98554.44;5073563;28;19928;-43
2022/03/23 08:17:21;;;;;;;;;;;7.50;97.20;;;6.99;62.81;98556.16;5074358;28;20041;-45
2022/03/23 08:20:32;;;;;;;;;;;7.60;96.90;;;7.01;62.72;98537.81;5084475;28;19926;-46
2022/03/23 08:22:35;;;;;;;;;;;7.70;96.70;;;7.31;61.62;98572.66;5079459;28;19983;-44
2022/03/23 08:25:00;;;;;;;;;;;7.90;96.50;;;7.45;60.53;98569.06;5076844;28;20800;-45
2022/03/23 08:27:26;;;;;;;;;;;8.10;95.90;;;7.65;59.27;98563.69;5080973;28;19931;-44
2022/03/23 08:29:52;;;;;;;;;;;8.10;95.40;;;7.83;58.79;98562.69;5082779;28;20354;-45
2022/03/23 08:32:18;;;;;;;;;;;8.30;95.20;;;8.03;58.86;98564.31;5083912;28;19924;-45
2022/03/23 08:34:43;;;;;;;;;;;8.50;95.20;;;8.27;57.16;98564.97;5086563;28;19920;-46
2022/03/23 08:37:11;;;;;;;;;;;8.70;94.60;;;8.39;56.45;98562.22;5076626;28;20050;-45
2022/03/23 08:39:37;;;;;;;;;;;8.90;94.10;;;8.55;56.07;98561.22;5083796;28;20033;-44
2022/03/23 08:42:03;;;;;;;;;;;9.10;93.80;;;8.73;54.40;98562.78;5072910;28;19916;-46
2022/03/23 08:44:28;;;;;;;;;;;9.20;93.10;;;8.86;53.67;98553.00;5083748;28;19916;-46
2022/03/23 08:46:54;;;;;;;;;;;9.30;92.60;;;9.09;52.32;98557.13;5083212;28;20033;-44
2022/03/23 08:49:20;;;;;;;;;;;9.50;91.80;;;9.22;51.63;98556.06;5085743;28;20029;-46
2022/03/23 08:51:45;;;;;;;;;;;9.70;91.60;;;9.28;50.45;98545.47;5075392;28;19988;-44
2022/03/23 08:54:11;;;;;;;;;;;9.80;90.50;;;9.60;51.73;98559.94;5059963;28;20124;-40
2022/03/23 08:56:37;;;;;;;;;;;10.00;91.80;;;9.66;50.88;98559.84;5059971;28;19924;-42
2022/03/23 08:59:02;;;;;;;;;;;10.10;90.80;;;9.74;50.54;98563.25;5075108;28;19955;-43
2022/03/23 09:01:28;;;;;;;;;;;10.20;90.40;;;9.88;50.81;98556.88;5081917;28;19916;-47
2022/03/23 09:03:55;;;;;;;;;;;10.30;90.60;;;9.99;50.15;98562.00;5083004;28;19955;-46
2022/03/23 09:06:21;;;;;;;;;;;10.40;90.10;;;10.14;49.46;98548.56;5069233;28;20296;-43
2022/03/23 09:08:47;;;;;;;;;;;10.50;89.40;;;10.35;48.56;98557.88;5075645;28;20819;-44
2022/03/23 09:11:12;;;;;;;;;;;10.70;88.40;;;10.39;47.64;98553.44;5084926;28;19975;-40
2022/03/23 09:13:39;;;;;;;;;;;10.80;86.80;;;10.46;47.62;98555.06;5075866;28;19916;-42
2022/03/23 09:16:04;;;;;;;;;;;10.90;86.30;;;10.53;46.42;98551.41;5081769;28;19924;-44
2022/03/23 09:18:30;;;;;;;;;;;11.00;84.80;;;10.61;47.18;98549.50;5080061;28;20414;-41
2022/03/23 09:20:56;;;;;;;;;;;11.00;85.20;;;10.77;47.53;98554.50;5075887;28;19931;-41
2022/03/23 09:23:21;;;;;;;;;;;11.10;85.80;;;10.84;47.23;98549.09;5077469;28;20002;-46
2022/03/23 09:25:49;;;;;;;;;;;11.30;85.50;;;10.97;46.56;98549.69;5078435;28;20342;-42
2022/03/23 09:28:15;;;;;;;;;;;11.40;84.50;;;11.08;45.21;98555.63;5087987;28;19924;-46
2022/03/23 09:30:40;;;;;;;;;;;11.40;82.90;;;11.17;44.42;98557.22;5070081;28;20330;-44
2022/03/23 09:33:07;;;;;;;;;;;11.50;80.80;;;11.25;44.74;98557.03;5076194;28;20456;-46
2022/03/23 09:35:32;;;;;;;;;;;11.60;81.20;;;11.37;42.67;98562.06;5070296;28;20401;-41
2022/03/23 09:37:59;;;;;;;;;;;11.70;78.60;;;11.41;42.53;98558.47;5074564;28;20292;-45
2022/03/23 09:40:30;;;;;;;;;;;11.80;77.70;;;11.53;42.71;98562.59;5083835;28;20364;-44
2022/03/23 09:42:58;;;;;;;;;;;11.90;77.40;;;11.55;42.70;98563.44;5078955;28;20484;-40
2022/03/23 09:48:11;;;;;;;;;;;12.00;77.70;;;11.71;42.13;98555.16;5076711;28;19989;-46
2022/03/23 09:50:39;;;;;;;;;;;12.10;76.20;;;11.80;40.76;98557.59;5078587;28;20396;-42
2022/03/23 09:53:06;;;;;;;;;;;12.10;74.60;;;11.76;39.76;98555.94;5083913;28;20349;-45
2022/03/23 09:55:31;;;;;;;;;;;12.20;71.90;;;11.78;39.35;98548.84;5073043;28;19919;-45
2022/03/23 09:58:00;;;;;;;;;;;12.20;71.30;;;11.82;38.84;98550.50;5056344;28;19923;-44
2022/03/23 10:00:29;;;;;;;;;;;12.20;70.10;;;11.84;39.15;98543.38;5068482;28;19917;-45
2022/03/23 10:02:57;;;;;;;;;;;12.20;69.70;;;11.93;38.73;98544.97;5078441;28;19930;-40
2022/03/23 10:05:45;;;;;;;;;;;12.30;69.70;;;12.13;38.63;98548.03;5074697;28;19977;-45
2022/03/23 10:08:38;;;;;;;;;;;12.40;69.50;;;12.31;37.76;98553.72;5080777;28;19923;-43
2022/03/23 10:11:29;;;;;;;;;;;12.60;68.20;;;12.38;36.94;98545.63;5079508;28;19928;-46
2022/03/23 10:14:31;;;;;;;;;;;12.70;66.40;;;12.40;37.51;98543.81;5075032;28;20018;-44
2022/03/23 10:17:35;;;;;;;;;;;12.80;67.10;;;12.52;35.93;98544.38;5060145;28;19927;-43
2022/03/23 10:20:00;;;;;;;;;;;12.90;65.40;;;12.78;35.88;98547.19;5076113;28;20298;-46
2022/03/23 10:22:28;;;;;;;;;;;13.00;64.60;;;12.73;35.97;98546.44;5079511;28;20136;-45
2022/03/23 10:24:53;;;;;;;;;;;13.10;64.00;;;12.82;35.07;98539.19;5081544;28;19924;-44
2022/03/23 10:27:22;;;;;;;;;;;13.20;62.30;;;12.88;34.95;98544.28;5067111;28;20297;-45
2022/03/23 10:29:52;;;;;;;;;;;13.20;61.40;;;12.94;33.75;98541.47;5084698;28;20014;-44
2022/03/23 10:32:20;;;;;;;;;;;13.20;59.60;;;12.97;32.93;98531.66;5078196;28;19978;-42
2022/03/23 10:34:51;;;;;;;;;;;13.30;58.40;;;13.01;31.85;98532.44;5076128;28;20382;-46
2022/03/23 10:37:26;;;;;;;;;;;13.30;56.90;;;13.05;31.22;98527.94;5056772;28;19928;-44
2022/03/23 10:39:54;;;;;;;;;;;13.40;55.90;;;13.04;32.03;98527.03;5078799;28;19927;-44
2022/03/23 10:42:20;;;;;;;;;;;13.40;56.40;;;13.18;32.08;98530.16;5073554;28;19924;-43
2022/03/23 10:44:47;;;;;;;;;;;13.50;56.40;;;13.14;31.90;98532.97;5079196;28;20289;-45
2022/03/23 10:47:25;;;;;;;;;;;13.50;55.90;;;13.15;31.74;98532.03;5079822;28;20309;-39
2022/03/23 10:49:51;;;;;;;;;;;13.50;56.00;;;13.13;29.29;98528.56;5077519;28;19975;-43
2022/03/23 10:52:18;;;;;;;;;;;13.50;53.50;;;13.15;30.29;98527.63;5078524;28;19971;-45
2022/03/23 10:54:53;;;;;;;;;;;13.50;53.20;;;13.12;31.79;98497.72;5081359;28;20014;-46
2022/03/23 10:57:19;;;;;;;;;;;13.60;55.60;;;13.23;31.66;98522.09;5078884;28;19923;-46
2022/03/23 10:59:45;;;;;;;;;;;13.60;55.80;;;13.31;30.18;98520.09;5076581;28;20467;-43
2022/03/23 11:02:11;;;;;;;;;;;13.60;53.20;;;13.43;29.02;98508.25;5072538;28;19981;-43
2022/03/23 11:04:43;;;;;;;;;;;13.70;51.50;;;13.70;29.15;98511.81;5074491;28;19915;-44
2022/03/23 11:07:25;;;;;;;;;;;13.90;52.00;;;13.78;28.22;98513.38;5072580;28;20398;-43
2022/03/23 11:18:17;;;;;;;;;;;14.10;49.80;;;13.79;27.37;98513.31;5076626;28;20198;-44
2022/03/23 11:20:56;;;;;;;;;;;14.10;48.30;;;13.61;28.47;98500.66;5080205;28;19923;-47
2022/03/23 11:23:35;;;;;;;;;;;14.00;49.60;;;13.63;28.37;98502.34;5079829;28;19916;-44
2022/03/23 11:26:04;;;;;;;;;;;14.00;50.00;;;13.57;27.96;98497.25;5082014;28;20007;-43
2022/03/23 11:28:36;;;;;;;;;;;13.90;49.10;;;13.56;28.99;98499.00;5081477;28;20384;-45
2022/03/23 11:31:04;;;;;;;;;;;13.90;50.10;;;13.55;29.71;98499.94;5082567;28;19924;-44
2022/03/23 11:33:34;;;;;;;;;;;13.90;51.20;;;13.76;28.43;98486.91;5075666;28;20019;-45
2022/03/23 11:36:00;;;;;;;;;;;14.00;49.80;;;13.78;26.21;98490.38;5080142;28;19959;-45
2022/03/23 11:38:27;;;;;;;;;;;14.10;47.90;;;13.80;26.92;98488.56;5080664;28;20353;-43
2022/03/23 11:40:54;;;;;;;;;;;14.10;47.40;;;13.83;26.83;98490.22;5082528;28;19931;-43
2022/03/23 11:43:22;;;;;;;;;;;14.10;47.00;;;13.80;26.71;98487.66;5079361;28;20012;-42
2022/03/23 11:45:50;;;;;;;;;;;14.10;46.70;;;13.66;26.67;98483.69;5075090;28;19986;-42
2022/03/23 11:48:52;;;;;;;;;;;14.10;46.60;;;13.75;27.19;98482.53;5061048;28;19924;-44
2022/03/23 11:51:18;;;;;;;;;;;14.10;47.50;;;14.04;26.53;98480.69;5082038;28;19923;-44
2022/03/23 11:54:02;;;;;;;;;;;14.30;46.90;;;13.89;27.09;98476.75;5079566;28;19929;-44